Time;durP1;ratioP1;P1;durP2;ratioP2;P2;SDS_P1;SDS_P2;PMS_P1;PMS_P2;Temp;Humidity;BMP_temperature;BMP_pressure;BME280_temperature;BME280_humidity;BME280_pressure;Samples;Min_cycle;Max_cycle;Signal;HPM_P1;HPM_P2
2023/04/25 00:01:41;;;;;;;2.43;2.00;;;17.60;60.70;;;;;;5079580;28;20210;-47
2023/04/25 00:04:13;;;;;;;3.97;1.97;;;17.50;60.60;;;;;;5061197;28;20198;-47
2023/04/25 00:06:43;;;;;;;3.20;2.00;;;17.50;60.70;;;;;;5067047;28;20213;-47
2023/04/25 00:09:18;;;;;;;2.83;1.80;;;17.50;60.60;;;;;;5066693;28;20626;-47
2023/04/25 00:11:46;;;;;;;3.37;1.90;;;17.50;60.60;;;;;;5071357;28;20194;-47
2023/04/25 00:14:16;;;;;;;4.73;2.03;;;17.50;60.60;;;;;;5050908;28;20629;-47
2023/04/25 00:16:48;;;;;;;3.93;2.13;;;17.50;60.60;;;;;;5067332;28;20201;-47
2023/04/25 00:19:19;;;;;;;2.67;1.77;;;17.50;60.70;;;;;;5065347;28;20858;-47
2023/04/25 00:21:48;;;;;;;2.70;1.73;;;17.50;60.60;;;;;;5081919;28;20594;-48
2023/04/25 00:24:17;;;;;;;3.17;1.70;;;17.50;60.60;;;;;;5075318;28;20190;-47
2023/04/25 00:26:48;;;;;;;3.63;1.80;;;17.50;60.60;;;;;;5057590;28;20185;-47
2023/04/25 00:29:17;;;;;;;4.07;2.20;;;17.50;60.60;;;;;;5069677;28;20205;-47
2023/04/25 00:31:46;;;;;;;3.30;1.97;;;17.50;60.60;;;;;;5069469;28;20549;-47
2023/04/25 00:34:17;;;;;;;2.77;1.97;;;17.50;60.60;;;;;;5072952;28;20196;-47
2023/04/25 00:36:50;;;;;;;4.97;2.10;;;17.50;60.60;;;;;;5074275;28;20237;-47
2023/04/25 00:39:20;;;;;;;2.90;1.83;;;17.50;60.60;;;;;;5073388;28;20693;-47
2023/04/25 00:41:48;;;;;;;2.97;1.80;;;17.50;60.60;;;;;;5073306;28;20681;-47
2023/04/25 00:44:16;;;;;;;2.73;1.60;;;17.50;60.60;;;;;;5053168;28;20200;-47
2023/04/25 00:46:47;;;;;;;2.90;1.63;;;17.50;60.60;;;;;;5073764;28;20198;-47
2023/04/25 00:49:16;;;;;;;3.70;2.00;;;17.40;60.50;;;;;;5049871;28;20785;-47
2023/04/25 00:51:46;;;;;;;4.07;1.40;;;17.40;60.50;;;;;;5051432;28;20645;-47
2023/04/25 00:54:16;;;;;;;2.63;1.70;;;17.50;60.50;;;;;;5066688;28;20218;-47
2023/04/25 00:56:45;;;;;;;1.97;1.47;;;17.40;60.60;;;;;;5057348;28;20263;-47
2023/04/25 00:59:17;;;;;;;2.47;1.60;;;17.40;60.50;;;;;;5061394;28;20221;-47
2023/04/25 01:01:50;;;;;;;3.97;1.53;;;17.40;60.50;;;;;;5052032;28;20547;-47
2023/04/25 01:04:21;;;;;;;3.07;1.80;;;17.40;60.50;;;;;;5049972;28;20670;-47
2023/04/25 01:07:03;;;;;;;4.37;1.80;;;17.40;60.50;;;;;;5064449;28;20644;-47
2023/04/25 01:09:35;;;;;;;2.33;1.60;;;17.40;60.50;;;;;;5073653;28;20197;-47
2023/04/25 01:12:04;;;;;;;2.10;1.67;;;17.40;60.60;;;;;;5069442;28;20607;-47
2023/04/25 01:14:37;;;;;;;3.77;1.97;;;17.40;60.50;;;;;;5054337;28;20193;-47
2023/04/25 01:17:08;;;;;;;2.57;1.40;;;17.40;60.60;;;;;;5080929;28;20477;-47
2023/04/25 01:19:37;;;;;;;3.23;1.70;;;17.40;60.50;;;;;;5040125;28;20731;-47
2023/04/25 01:22:06;;;;;;;3.10;1.70;;;17.40;60.60;;;;;;5075710;28;20619;-47
2023/04/25 01:24:36;;;;;;;4.80;1.80;;;17.40;60.60;;;;;;5080764;28;20209;-47
2023/04/25 01:27:06;;;;;;;1.93;1.30;;;17.30;60.50;;;;;;5052659;28;20206;-47
2023/04/25 01:29:39;;;;;;;2.20;1.50;;;17.40;60.60;;;;;;5064204;28;20202;-47
2023/04/25 01:32:10;;;;;;;2.40;1.50;;;17.40;60.60;;;;;;5050881;28;20186;-47
2023/04/25 01:34:43;;;;;;;2.63;1.43;;;17.40;60.60;;;;;;5072003;28;20197;-47
2023/04/25 01:37:10;;;;;;;3.47;1.60;;;17.40;60.60;;;;;;5042974;28;20646;-47
2023/04/25 01:39:41;;;;;;;3.30;1.60;;;17.30;60.50;;;;;;5063898;28;20541;-47
2023/04/25 01:42:08;;;;;;;2.30;1.47;;;17.40;60.60;;;;;;5063182;28;20282;-47
2023/04/25 01:44:37;;;;;;;2.13;1.30;;;17.40;60.50;;;;;;5060568;28;20200;-47
2023/04/25 01:47:05;;;;;;;3.00;1.63;;;17.40;60.60;;;;;;5027420;28;20212;-47
2023/04/25 01:49:39;;;;;;;3.20;1.57;;;17.30;60.50;;;;;;5054368;28;20324;-47
2023/04/25 01:52:10;;;;;;;2.33;1.53;;;17.30;60.50;;;;;;5065650;28;20665;-47
2023/04/25 01:54:44;;;;;;;2.87;1.30;;;17.30;60.50;;;;;;5035222;28;20206;-47
2023/04/25 01:57:29;;;;;;;2.10;1.40;;;17.30;60.50;;;;;;5057750;28;20229;-47
2023/04/25 02:00:06;;;;;;;3.13;1.63;;;17.30;60.50;;;;;;5036623;28;20226;-47
2023/04/25 02:02:41;;;;;;;2.07;1.33;;;17.30;60.50;;;;;;5048879;28;20198;-47
2023/04/25 02:05:12;;;;;;;2.37;1.27;;;17.30;60.50;;;;;;5056984;28;20239;-47
2023/04/25 02:07:42;;;;;;;3.07;1.33;;;17.30;60.50;;;;;;5066361;28;20236;-47
2023/04/25 02:10:26;;;;;;;3.37;1.43;;;17.30;60.60;;;;;;5058027;28;20237;-47
2023/04/25 02:12:57;;;;;;;2.37;1.20;;;17.30;60.60;;;;;;5056701;28;20338;-47
2023/04/25 02:15:27;;;;;;;3.03;1.30;;;17.30;60.60;;;;;;5022444;28;20222;-47
2023/04/25 02:18:00;;;;;;;2.93;1.40;;;17.30;60.60;;;;;;5052056;28;20216;-47
2023/04/25 02:20:31;;;;;;;3.83;1.33;;;17.30;60.60;;;;;;5037384;28;20210;-47
2023/04/25 02:23:03;;;;;;;2.10;1.20;;;17.20;60.50;;;;;;5034131;28;20191;-47
2023/04/25 02:25:33;;;;;;;2.43;1.30;;;17.30;60.60;;;;;;5054796;28;20643;-47
2023/04/25 02:28:07;;;;;;;1.80;1.30;;;17.30;60.60;;;;;;5058234;28;20300;-47
2023/04/25 02:30:37;;;;;;;2.00;1.37;;;17.30;60.60;;;;;;5066724;28;20206;-47
2023/04/25 02:33:07;;;;;;;2.17;1.30;;;17.20;60.50;;;;;;5054018;28;20623;-46
2023/04/25 02:35:38;;;;;;;2.10;1.17;;;17.30;60.50;;;;;;5058112;28;20190;-47
2023/04/25 02:38:08;;;;;;;3.77;1.70;;;17.30;60.50;;;;;;5056555;28;20226;-48
2023/04/25 02:40:35;;;;;;;2.53;1.07;;;17.30;60.60;;;;;;5039293;28;20260;-47
2023/04/25 02:43:03;;;;;;;2.87;1.80;;;17.30;60.50;;;;;;5054614;28;20233;-47
2023/04/25 02:45:35;;;;;;;2.27;1.07;;;17.30;60.50;;;;;;5058922;28;20650;-47
2023/04/25 02:48:05;;;;;;;2.53;1.20;;;17.20;60.50;;;;;;5058808;28;20299;-47
2023/04/25 02:50:34;;;;;;;3.10;1.50;;;17.20;60.50;;;;;;5052637;28;20587;-47
2023/04/25 02:53:05;;;;;;;2.27;1.40;;;17.20;60.40;;;;;;5030786;28;20190;-47
2023/04/25 02:55:48;;;;;;;4.50;1.60;;;17.20;60.50;;;;;;5050107;28;20235;-47
2023/04/25 02:58:19;;;;;;;1.90;1.10;;;17.20;60.50;;;;;;5050374;28;20789;-47
2023/04/25 03:00:52;;;;;;;2.50;1.20;;;17.20;60.50;;;;;;5060698;28;20245;-47
2023/04/25 03:03:25;;;;;;;1.90;1.07;;;17.20;60.50;;;;;;5056702;28;20190;-47
2023/04/25 03:05:55;;;;;;;1.67;1.13;;;17.20;60.50;;;;;;5032611;28;20201;-47
2023/04/25 03:08:26;;;;;;;3.53;1.73;;;17.20;60.50;;;;;;5056181;28;20197;-47
2023/04/25 03:10:55;;;;;;;1.93;1.30;;;17.20;60.50;;;;;;5058063;28;20201;-47
2023/04/25 03:13:27;;;;;;;2.60;1.17;;;17.20;60.50;;;;;;5050609;28;20555;-46
2023/04/25 03:15:58;;;;;;;2.07;1.10;;;17.20;60.50;;;;;;5034941;28;20206;-47
2023/04/25 03:18:27;;;;;;;2.00;1.17;;;17.20;60.50;;;;;;5048372;28;20695;-47
2023/04/25 03:20:57;;;;;;;2.07;1.20;;;17.20;60.50;;;;;;5053629;28;20263;-47
2023/04/25 03:23:26;;;;;;;2.13;1.40;;;17.20;60.50;;;;;;5036274;28;20202;-47
2023/04/25 03:25:55;;;;;;;3.23;1.70;;;17.20;60.50;;;;;;5057686;28;20196;-47
2023/04/25 03:28:27;;;;;;;2.43;1.40;;;17.10;60.40;;;;;;5049804;28;20251;-47
2023/04/25 03:30:57;;;;;;;2.83;1.23;;;17.20;60.50;;;;;;5028332;28;20214;-47
2023/04/25 03:33:27;;;;;;;2.63;1.30;;;17.20;60.50;;;;;;5049800;28;20251;-47
2023/04/25 03:35:55;;;;;;;1.57;1.10;;;17.10;60.40;;;;;;5050420;28;20202;-47
2023/04/25 03:38:25;;;;;;;3.07;1.40;;;17.10;60.40;;;;;;5070308;28;20230;-47
2023/04/25 03:41:07;;;;;;;4.17;1.40;;;17.10;60.40;;;;;;5069240;28;20245;-47
2023/04/25 03:43:40;;;;;;;3.30;1.47;;;17.10;60.40;;;;;;5054384;28;20247;-47
2023/04/25 03:46:10;;;;;;;1.30;1.00;;;17.10;60.40;;;;;;5068438;28;20217;-47
2023/04/25 03:48:42;;;;;;;1.73;1.13;;;17.10;60.50;;;;;;5068196;28;20197;-47
2023/04/25 03:51:11;;;;;;;3.80;1.20;;;17.10;60.50;;;;;;5071978;28;20198;-47
2023/04/25 03:53:40;;;;;;;2.67;1.27;;;17.10;60.40;;;;;;5064573;28;20217;-47
2023/04/25 03:56:12;;;;;;;1.97;1.17;;;17.10;60.40;;;;;;5052049;28;20278;-47
2023/04/25 03:58:53;;;;;;;2.40;1.20;;;17.10;60.40;;;;;;5068966;28;20517;-47
2023/04/25 04:01:23;;;;;;;2.07;1.20;;;17.10;60.40;;;;;;5084034;28;20193;-47
2023/04/25 04:03:59;;;;;;;2.47;1.10;;;17.10;60.50;;;;;;5083439;28;20224;-47
2023/04/25 04:06:32;;;;;;;2.30;1.40;;;17.10;60.50;;;;;;5075841;28;20204;-47
2023/04/25 04:09:04;;;;;;;3.70;1.40;;;17.10;60.50;;;;;;5056116;28;20267;-47
2023/04/25 04:11:36;;;;;;;2.87;1.53;;;17.10;60.50;;;;;;5069188;28;20554;-47
2023/04/25 04:14:10;;;;;;;3.80;1.30;;;17.00;60.40;;;;;;5084810;28;20209;-46
2023/04/25 04:16:44;;;;;;;1.77;1.07;;;17.10;60.40;;;;;;5061198;28;20194;-47
2023/04/25 04:19:12;;;;;;;2.10;1.33;;;17.10;60.50;;;;;;5065369;28;20220;-47
2023/04/25 04:21:42;;;;;;;1.87;1.30;;;17.00;60.50;;;;;;5076787;28;20200;-47
2023/04/25 04:24:10;;;;;;;2.97;1.30;;;17.10;60.50;;;;;;5079528;28;20251;-47
2023/04/25 04:26:39;;;;;;;3.30;1.17;;;17.10;60.60;;;;;;5072619;28;20210;-47
2023/04/25 04:29:10;;;;;;;1.80;1.30;;;17.00;60.40;;;;;;5077919;28;20189;-47
2023/04/25 04:31:43;;;;;;;2.07;1.40;;;17.00;60.50;;;;;;5068561;28;20201;-47
2023/04/25 04:34:12;;;;;;;2.30;1.43;;;17.00;60.40;;;;;;5071091;28;20201;-47
2023/04/25 04:36:39;;;;;;;3.57;1.60;;;17.00;60.40;;;;;;5060826;28;20584;-47
2023/04/25 04:39:09;;;;;;;2.60;1.10;;;17.10;60.40;;;;;;5064690;28;20685;-47
2023/04/25 04:41:52;;;;;;;1.67;1.10;;;17.10;60.40;;;;;;5065285;28;20249;-47
2023/04/25 04:44:22;;;;;;;3.50;1.30;;;17.00;60.40;;;;;;5068350;28;20419;-47
2023/04/25 04:46:53;;;;;;;2.27;1.00;;;17.00;60.40;;;;;;5069134;28;20194;-47
2023/04/25 04:49:23;;;;;;;1.47;1.37;;;17.00;60.40;;;;;;5066658;28;20212;-47
2023/04/25 04:51:55;;;;;;;1.93;1.20;;;17.00;60.40;;;;;;5068116;28;20190;-47
2023/04/25 04:54:28;;;;;;;1.83;1.10;;;17.00;60.30;;;;;;5066805;28;20213;-47
2023/04/25 04:56:59;;;;;;;2.70;1.37;;;17.00;60.30;;;;;;5065979;28;20200;-47
2023/04/25 04:59:29;;;;;;;2.27;1.13;;;17.00;60.30;;;;;;5066758;28;20276;-47
2023/04/25 05:01:59;;;;;;;3.23;1.30;;;17.00;60.30;;;;;;5068687;28;20208;-47
2023/04/25 05:04:30;;;;;;;2.03;1.17;;;17.00;60.90;;;;;;5068452;28;20196;-47
2023/04/25 05:07:01;;;;;;;3.23;1.33;;;17.00;60.20;;;;;;5064286;28;20221;-47
2023/04/25 05:09:33;;;;;;;2.03;1.23;;;17.00;60.20;;;;;;5068529;28;20545;-47
2023/04/25 05:12:04;;;;;;;3.00;1.27;;;17.00;60.20;;;;;;5067859;28;20220;-48
2023/04/25 05:14:32;;;;;;;3.13;1.30;;;17.00;60.20;;;;;;5065131;28;20631;-48
2023/04/25 05:17:06;;;;;;;3.37;1.53;;;17.00;60.20;;;;;;5063356;28;20267;-47
2023/04/25 05:19:35;;;;;;;3.17;1.20;;;17.00;60.20;;;;;;5043270;28;20195;-47
2023/04/25 05:22:07;;;;;;;3.23;1.83;;;16.90;60.10;;;;;;5055618;28;20642;-47
2023/04/25 05:24:38;;;;;;;1.97;1.20;;;17.00;60.10;;;;;;5069899;28;20186;-47
2023/04/25 05:27:09;;;;;;;3.73;1.47;;;17.00;60.10;;;;;;5065542;28;20202;-47
2023/04/25 05:29:38;;;;;;;3.03;1.50;;;17.00;60.10;;;;;;5066906;28;20230;-46
2023/04/25 05:32:08;;;;;;;2.40;1.13;;;16.90;60.00;;;;;;5071809;28;20210;-47
2023/04/25 05:34:41;;;;;;;3.23;1.80;;;16.90;60.00;;;;;;5062590;28;20259;-47
2023/04/25 05:37:12;;;;;;;1.97;1.37;;;16.90;60.00;;;;;;5063132;28;20228;-47
2023/04/25 05:39:40;;;;;;;3.33;2.00;;;17.00;60.00;;;;;;5071198;28;20281;-47
2023/04/25 05:42:12;;;;;;;3.77;1.60;;;16.90;59.90;;;;;;5056280;28;20212;-47
2023/04/25 05:44:44;;;;;;;12.67;1.70;;;17.00;59.90;;;;;;5066246;28;20189;-47
2023/04/25 05:47:12;;;;;;;3.20;1.53;;;17.00;59.90;;;;;;5046344;28;20197;-47
2023/04/25 05:49:43;;;;;;;3.63;1.67;;;17.00;59.90;;;;;;5058558;28;20189;-47
2023/04/25 05:52:15;;;;;;;6.23;2.07;;;17.00;59.90;;;;;;5075260;28;20235;-47
2023/04/25 05:54:45;;;;;;;3.30;1.40;;;17.00;59.80;;;;;;5065528;28;20197;-47
2023/04/25 05:57:25;;;;;;;2.80;1.50;;;17.00;59.80;;;;;;5065467;28;20185;-47
2023/04/25 05:59:58;;;;;;;4.50;1.60;;;17.00;59.90;;;;;;5075251;28;20616;-47
2023/04/25 06:02:28;;;;;;;4.10;1.60;;;17.00;59.90;;;;;;5070042;28;21446;-47
2023/04/25 06:05:05;;;;;;;4.60;1.70;;;17.00;59.90;;;;;;5070309;28;20224;-47
2023/04/25 06:07:36;;;;;;;5.40;1.83;;;17.00;59.70;;;;;;5072905;28;20243;-47
2023/04/25 06:10:11;;;;;;;4.47;1.93;;;17.00;59.60;;;;;;5060693;28;20206;-47
2023/04/25 06:12:44;;;;;;;3.87;1.47;;;17.00;59.50;;;;;;5071301;28;20189;-47
2023/04/25 06:15:16;;;;;;;3.90;1.50;;;17.00;59.50;;;;;;5039111;28;21017;-47
2023/04/25 06:17:50;;;;;;;5.93;1.80;;;17.00;59.50;;;;;;5050120;28;20725;-47
2023/04/25 06:20:22;;;;;;;5.27;2.10;;;17.00;59.40;;;;;;5072255;28;20213;-47
2023/04/25 06:22:54;;;;;;;5.00;1.70;;;17.00;59.40;;;;;;5074814;28;20204;-47
2023/04/25 06:25:24;;;;;;;9.63;2.30;;;17.00;59.30;;;;;;5074643;28;20202;-47
2023/04/25 06:28:01;;;;;;;3.93;2.00;;;17.00;59.80;;;;;;5074241;28;20295;-47
2023/04/25 06:30:31;;;;;;;6.37;2.37;;;17.00;59.10;;;;;;5075768;28;20226;-47
2023/04/25 06:33:01;;;;;;;6.33;2.40;;;17.00;59.00;;;;;;5067497;28;20201;-47
2023/04/25 06:35:34;;;;;;;6.40;2.27;;;17.00;58.90;;;;;;5083946;28;20197;-47
2023/04/25 06:38:05;;;;;;;3.97;1.73;;;17.10;58.90;;;;;;5056455;28;20229;-47
2023/04/25 06:40:36;;;;;;;8.73;2.40;;;17.00;58.80;;;;;;5073876;28;20218;-47
2023/04/25 06:43:07;;;;;;;5.30;2.47;;;17.00;58.70;;;;;;5050521;28;20241;-47
2023/04/25 06:45:36;;;;;;;7.50;2.33;;;17.00;58.70;;;;;;5080260;28;20208;-47
2023/04/25 06:48:08;;;;;;;4.73;2.27;;;17.00;58.70;;;;;;5078707;28;20204;-47
2023/04/25 06:50:40;;;;;;;4.63;2.17;;;17.10;58.80;;;;;;5071359;28;20194;-47
2023/04/25 06:53:11;;;;;;;6.37;2.47;;;17.10;59.20;;;;;;5070810;28;20208;-47
2023/04/25 06:55:43;;;;;;;8.37;2.67;;;17.10;59.60;;;;;;5064588;28;20201;-47
2023/04/25 06:58:12;;;;;;;6.73;2.17;;;17.10;59.40;;;;;;5073305;28;20204;-47
2023/04/25 07:00:41;;;;;;;7.73;2.80;;;17.10;59.40;;;;;;5074184;28;20243;-47
2023/04/25 07:03:14;;;;;;;5.77;2.03;;;17.10;59.40;;;;;;5060772;28;20186;-47
2023/04/25 07:05:46;;;;;;;5.37;2.40;;;17.10;59.20;;;;;;5072047;28;20679;-47
2023/04/25 07:08:16;;;;;;;6.07;2.30;;;17.10;59.10;;;;;;5072863;28;20202;-49
2023/04/25 07:10:46;;;;;;;7.47;2.60;;;17.10;59.00;;;;;;5073732;28;20205;-47
2023/04/25 07:13:16;;;;;;;5.10;2.27;;;17.10;59.00;;;;;;5054553;28;20220;-47
2023/04/25 07:15:44;;;;;;;4.93;2.37;;;17.00;59.00;;;;;;5075403;28;20235;-47
2023/04/25 07:18:17;;;;;;;6.53;2.20;;;17.10;59.00;;;;;;5072464;28;20229;-48
2023/04/25 07:20:46;;;;;;;6.47;2.67;;;17.00;59.10;;;;;;5070589;28;20226;-47
2023/04/25 07:23:18;;;;;;;3.93;1.60;;;17.10;59.00;;;;;;5072821;28;20797;-47
2023/04/25 07:25:49;;;;;;;4.40;2.00;;;17.10;58.80;;;;;;5074826;28;20190;-47
2023/04/25 07:28:23;;;;;;;4.10;1.80;;;17.10;58.90;;;;;;5072630;28;20194;-47
2023/04/25 07:30:58;;;;;;;5.33;1.83;;;17.10;58.80;;;;;;5070462;28;20533;-47
2023/04/25 07:33:29;;;;;;;3.90;1.93;;;17.10;58.70;;;;;;5070705;28;20203;-47
2023/04/25 07:36:00;;;;;;;4.90;2.10;;;17.10;58.70;;;;;;5071113;28;20674;-47
2023/04/25 07:38:30;;;;;;;4.30;1.63;;;17.10;58.80;;;;;;5036456;28;20986;-47
2023/04/25 07:41:01;;;;;;;4.27;1.90;;;17.10;58.70;;;;;;5056650;28;20501;-47
2023/04/25 07:43:33;;;;;;;6.03;1.93;;;17.10;58.60;;;;;;5065551;28;20201;-47
2023/04/25 07:46:02;;;;;;;3.27;1.70;;;17.10;58.70;;;;;;5063766;28;20214;-47
2023/04/25 07:48:33;;;;;;;4.57;1.57;;;17.10;58.50;;;;;;5050441;28;20197;-46
2023/04/25 07:51:05;;;;;;;3.50;1.60;;;17.10;58.50;;;;;;5052569;28;20247;-47
2023/04/25 07:53:37;;;;;;;5.60;1.80;;;17.10;58.50;;;;;;5047612;28;20221;-47
2023/04/25 07:56:09;;;;;;;6.57;1.87;;;17.10;58.30;;;;;;5053133;28;20506;-47
2023/04/25 07:58:39;;;;;;;4.10;1.60;;;17.10;58.20;;;;;;5038746;28;20203;-46
2023/04/25 08:01:08;;;;;;;3.97;1.50;;;17.10;58.40;;;;;;5048598;28;20218;-47
2023/04/25 08:03:39;;;;;;;2.63;1.30;;;17.10;58.30;;;;;;5049406;28;20259;-47
2023/04/25 08:06:12;;;;;;;2.73;1.60;;;17.10;58.30;;;;;;5058096;28;20264;-47
2023/04/25 08:08:43;;;;;;;2.07;1.30;;;17.10;58.30;;;;;;5058256;28;20202;-47
2023/04/25 08:11:10;;;;;;;2.77;1.47;;;17.10;58.10;;;;;;5028787;28;20221;-47
2023/04/25 08:13:41;;;;;;;5.10;1.47;;;17.10;58.30;;;;;;5043192;28;20518;-47
2023/04/25 08:16:11;;;;;;;3.97;1.37;;;17.10;58.30;;;;;;5051692;28;20636;-47
2023/04/25 08:18:41;;;;;;;2.30;1.50;;;17.10;58.20;;;;;;5043942;28;20635;-47
2023/04/25 08:21:13;;;;;;;2.47;1.43;;;17.20;58.10;;;;;;5047557;28;20251;-47
2023/04/25 08:23:57;;;;;;;3.90;1.57;;;17.10;57.90;;;;;;5062038;28;20198;-47
2023/04/25 08:26:27;;;;;;;3.17;1.60;;;17.20;57.80;;;;;;5054401;28;20183;-47
2023/04/25 08:28:57;;;;;;;3.27;1.27;;;17.20;58.10;;;;;;5030756;28;20906;-47
2023/04/25 08:31:43;;;;;;;2.60;1.40;;;17.20;58.00;;;;;;5035840;28;20205;-47
2023/04/25 08:34:13;;;;;;;5.27;1.57;;;17.20;57.90;;;;;;5046140;28;20277;-47
2023/04/25 08:36:43;;;;;;;4.27;1.60;;;17.10;57.90;;;;;;5053075;28;20306;-47
2023/04/25 08:39:13;;;;;;;3.33;1.47;;;17.20;57.90;;;;;;5056033;28;20255;-47
2023/04/25 08:41:44;;;;;;;3.77;1.30;;;17.20;58.10;;;;;;5069844;28;20229;-47
2023/04/25 08:44:16;;;;;;;3.00;1.33;;;17.20;58.10;;;;;;5051778;28;20206;-47
2023/04/25 08:46:49;;;;;;;2.23;1.33;;;17.20;57.90;;;;;;5068324;28;20209;-47
2023/04/25 08:49:21;;;;;;;2.90;1.13;;;17.20;57.80;;;;;;5043787;28;20204;-47
2023/04/25 08:51:54;;;;;;;3.77;1.40;;;17.20;57.80;;;;;;5060451;28;20586;-47
2023/04/25 08:54:28;;;;;;;4.37;1.50;;;17.20;57.70;;;;;;5030525;28;20226;-47
2023/04/25 08:57:04;;;;;;;2.37;1.40;;;17.20;57.70;;;;;;5050105;28;20197;-47
2023/04/25 08:59:37;;;;;;;3.20;1.10;;;17.30;57.90;;;;;;5067645;28;20212;-47
2023/04/25 09:02:09;;;;;;;2.63;1.40;;;17.20;57.80;;;;;;5054734;28;20213;-47
2023/04/25 09:04:39;;;;;;;3.57;1.30;;;17.30;57.90;;;;;;5068606;28;20186;-47
2023/04/25 09:07:10;;;;;;;3.37;1.10;;;17.30;57.90;;;;;;5063208;28;20207;-47
2023/04/25 09:09:52;;;;;;;4.93;1.27;;;17.20;57.70;;;;;;5062407;28;20201;-47
2023/04/25 09:12:25;;;;;;;4.03;1.50;;;17.30;57.80;;;;;;5066510;28;20201;-47
2023/04/25 09:15:11;;;;;;;2.50;1.17;;;17.30;57.80;;;;;;5049850;28;20542;-47
2023/04/25 09:17:56;;;;;;;3.00;1.30;;;17.30;57.70;;;;;;5051704;28;20205;-47
2023/04/25 09:20:25;;;;;;;3.20;1.13;;;17.20;57.40;;;;;;5036038;28;20685;-47
2023/04/25 09:23:07;;;;;;;1.77;1.03;;;17.30;57.10;;;;;;5050617;28;20192;-47
2023/04/25 09:25:53;;;;;;;3.57;1.00;;;17.30;57.20;;;;;;5053682;28;20282;-47
2023/04/25 09:28:35;;;;;;;2.80;1.10;;;17.30;57.40;;;;;;5067327;28;20192;-47
2023/04/25 09:31:11;;;;;;;2.73;1.10;;;17.30;57.30;;;;;;5063206;28;20231;-47
2023/04/25 09:33:41;;;;;;;3.50;1.23;;;17.30;57.10;;;;;;5070166;28;20557;-47
2023/04/25 09:36:13;;;;;;;3.80;1.37;;;17.30;57.40;;;;;;5059568;28;20198;-47
2023/04/25 09:38:47;;;;;;;2.30;1.00;;;17.30;57.40;;;;;;5050994;28;20260;-47
2023/04/25 09:41:24;;;;;;;2.30;1.00;;;17.30;57.40;;;;;;5061075;28;20265;-47
2023/04/25 09:44:02;;;;;;;5.03;1.40;;;17.30;57.60;;;;;;5043347;28;20185;-47
2023/04/25 09:46:41;;;;;;;2.40;1.00;;;17.40;57.70;;;;;;5056129;28;20520;-47
2023/04/25 09:49:14;;;;;;;2.37;0.93;;;17.40;57.60;;;;;;5064827;28;20669;-47
2023/04/25 09:51:58;;;;;;;3.33;1.13;;;17.30;57.70;;;;;;5051535;28;20201;-47
2023/04/25 09:54:28;;;;;;;4.30;1.23;;;17.40;57.60;;;;;;5061903;28;20209;-47
2023/04/25 09:57:10;;;;;;;2.60;1.00;;;17.40;57.60;;;;;;5065743;28;20213;-46
2023/04/25 09:59:59;;;;;;;1.40;0.90;;;17.40;57.50;;;;;;5069104;28;20202;-47
2023/04/25 10:02:38;;;;;;;3.93;1.10;;;17.40;57.20;;;;;;5055723;28;20810;-46
2023/04/25 10:05:14;;;;;;;3.90;1.13;;;17.40;57.20;;;;;;5068025;28;20197;-47
2023/04/25 10:07:46;;;;;;;2.17;1.00;;;17.40;57.00;;;;;;5057787;28;20205;-46
2023/04/25 10:10:27;;;;;;;3.83;0.93;;;17.40;57.00;;;;;;5065761;28;20595;-47
2023/04/25 10:13:06;;;;;;;3.30;1.40;;;17.40;56.70;;;;;;5052807;28;20216;-47
2023/04/25 10:15:36;;;;;;;1.73;0.90;;;17.40;56.60;;;;;;5071694;28;20202;-47
2023/04/25 10:18:09;;;;;;;2.77;1.27;;;17.40;56.60;;;;;;5038695;28;20307;-46
2023/04/25 10:20:46;;;;;;;3.33;1.17;;;17.40;56.40;;;;;;5072846;28;20205;-46
2023/04/25 10:23:16;;;;;;;2.73;1.10;;;17.40;56.30;;;;;;5051536;28;20201;-46
2023/04/25 10:25:50;;;;;;;3.00;0.93;;;17.40;56.10;;;;;;5054980;28;20252;-46
2023/04/25 10:28:20;;;;;;;2.33;1.10;;;17.40;56.30;;;;;;5071999;28;20193;-47
2023/04/25 10:31:07;;;;;;;3.43;1.30;;;17.40;56.30;;;;;;5054866;28;20214;-46
2023/04/25 10:33:48;;;;;;;2.17;0.80;;;17.40;56.50;;;;;;5061540;28;20194;-47
2023/04/25 10:36:27;;;;;;;2.03;1.00;;;17.40;56.70;;;;;;5055072;28;20220;-46
2023/04/25 10:39:07;;;;;;;1.60;0.90;;;17.40;56.90;;;;;;5058845;28;20193;-46
2023/04/25 10:42:09;;;;;;;2.03;0.90;;;17.40;57.00;;;;;;5064372;28;20245;-47
2023/04/25 10:45:00;;;;;;;5.13;1.07;;;17.40;57.00;;;;;;5069209;28;20270;-47
2023/04/25 10:47:46;;;;;;;2.00;0.87;;;17.40;57.00;;;;;;5047197;28;20210;-46
2023/04/25 10:50:18;;;;;;;1.87;1.00;;;17.40;56.90;;;;;;5067226;28;20204;-47
2023/04/25 10:52:48;;;;;;;1.77;0.90;;;17.40;56.80;;;;;;5080966;28;20194;-47
2023/04/25 10:55:20;;;;;;;1.73;0.93;;;17.50;57.00;;;;;;5065469;28;20540;-47
2023/04/25 10:57:53;;;;;;;2.30;0.90;;;17.50;56.80;;;;;;5053239;28;20634;-47
2023/04/25 11:00:33;;;;;;;1.57;0.77;;;17.50;57.00;;;;;;5067778;28;20217;-47
2023/04/25 11:03:21;;;;;;;2.20;0.73;;;17.50;57.10;;;;;;5069258;28;20420;-47
2023/04/25 11:05:52;;;;;;;1.33;0.80;;;17.50;56.80;;;;;;5067010;28;20610;-47
2023/04/25 11:08:52;;;;;;;2.50;0.93;;;17.50;57.10;;;;;;5054893;28;20519;-47
2023/04/25 11:11:19;;;;;;;1.27;0.70;;;17.50;57.10;;;;;;5068200;28;20198;-47
2023/04/25 11:14:04;;;;;;;0.90;0.60;;;17.50;57.20;;;;;;5049498;28;20205;-47
2023/04/25 11:16:33;;;;;;;1.37;0.93;;;17.50;57.10;;;;;;5057789;28;20193;-46
2023/04/25 11:19:03;;;;;;;1.27;1.00;;;17.50;56.80;;;;;;5031718;28;20210;-46
2023/04/25 11:21:32;;;;;;;1.20;0.67;;;17.50;56.80;;;;;;5071671;28;20209;-47
2023/04/25 11:24:02;;;;;;;1.20;1.00;;;17.50;57.00;;;;;;5071006;28;20210;-47
2023/04/25 11:26:33;;;;;;;1.37;0.80;;;17.50;57.00;;;;;;5071908;28;20201;-46
2023/04/25 11:29:05;;;;;;;1.27;0.70;;;17.50;57.00;;;;;;5069763;28;20197;-47
2023/04/25 11:31:36;;;;;;;1.80;0.90;;;17.50;56.70;;;;;;5072354;28;20197;-47
2023/04/25 11:34:05;;;;;;;1.70;0.80;;;17.60;56.70;;;;;;5070102;28;20214;-47
2023/04/25 11:36:33;;;;;;;2.60;1.20;;;17.60;56.40;;;;;;5069906;28;20201;-47
2023/04/25 11:39:05;;;;;;;1.70;0.93;;;17.50;56.30;;;;;;5067067;28;20201;-46
2023/04/25 11:41:38;;;;;;;1.53;0.87;;;17.60;56.10;;;;;;5063568;28;20269;-47
2023/04/25 11:44:10;;;;;;;2.60;0.80;;;17.50;55.90;;;;;;5068486;28;20204;-47
2023/04/25 11:46:38;;;;;;;3.03;1.43;;;17.50;55.90;;;;;;5078233;28;20200;-47
2023/04/25 11:49:08;;;;;;;1.37;1.00;;;17.50;56.00;;;;;;5072937;28;20202;-47
2023/04/25 11:51:40;;;;;;;1.57;0.83;;;17.60;56.20;;;;;;5056192;28;20677;-47
2023/04/25 11:54:08;;;;;;;1.30;0.73;;;17.60;56.00;;;;;;5049990;28;20206;-46
2023/04/25 11:56:46;;;;;;;3.00;1.20;;;17.60;56.20;;;;;;5053574;28;20190;-48
2023/04/25 11:59:16;;;;;;;2.20;0.97;;;17.60;56.40;;;;;;5049411;28;20373;-47
2023/04/25 12:01:50;;;;;;;1.47;0.80;;;17.60;56.40;;;;;;5063544;28;20287;-48
2023/04/25 12:04:24;;;;;;;2.37;1.00;;;17.60;56.40;;;;;;5072266;28;20243;-47
2023/04/25 12:06:55;;;;;;;1.33;0.80;;;17.60;56.40;;;;;;5044075;28;20193;-47
2023/04/25 12:09:33;;;;;;;1.93;0.70;;;17.60;56.30;;;;;;5063643;28;20205;-46
2023/04/25 12:12:03;;;;;;;1.87;0.87;;;17.60;56.40;;;;;;5055695;28;20213;-46
2023/04/25 12:14:37;;;;;;;1.23;0.70;;;17.60;56.50;;;;;;5057469;28;20279;-48
2023/04/25 12:17:12;;;;;;;2.50;1.13;;;17.60;56.50;;;;;;5083003;28;20208;-47
2023/04/25 12:19:44;;;;;;;2.27;0.73;;;17.60;56.60;;;;;;5066894;28;20239;-48
2023/04/25 12:22:24;;;;;;;1.73;0.80;;;17.60;56.60;;;;;;5069064;28;20275;-47
2023/04/25 12:24:53;;;;;;;1.37;0.80;;;17.60;57.30;;;;;;5061971;28;20193;-48
2023/04/25 12:27:21;;;;;;;3.23;0.83;;;17.70;56.80;;;;;;5070544;28;20212;-47
2023/04/25 12:29:58;;;;;;;1.93;0.70;;;17.70;56.80;;;;;;5057712;28;20186;-47
2023/04/25 12:32:31;;;;;;;2.10;0.80;;;17.70;56.70;;;;;;5066229;28;20224;-47
2023/04/25 12:35:06;;;;;;;2.37;0.93;;;17.70;56.30;;;;;;5067794;28;20197;-47
2023/04/25 12:37:48;;;;;;;2.40;1.00;;;17.60;56.20;;;;;;5068327;28;20326;-48
2023/04/25 12:40:22;;;;;;;1.20;0.87;;;17.70;56.00;;;;;;5069231;28;20785;-46
2023/04/25 12:42:53;;;;;;;4.23;1.00;;;17.70;55.80;;;;;;5078875;28;20205;-46
2023/04/25 12:45:22;;;;;;;3.10;0.70;;;17.70;55.90;;;;;;5076540;28;20200;-47
2023/04/25 12:47:52;;;;;;;1.37;1.00;;;17.70;55.90;;;;;;5074527;28;20193;-47
2023/04/25 12:50:21;;;;;;;2.10;1.00;;;17.70;55.80;;;;;;5080899;28;20216;-46
2023/04/25 12:52:53;;;;;;;2.20;0.70;;;17.70;55.40;;;;;;5069778;28;20690;-46
2023/04/25 12:55:23;;;;;;;1.47;0.87;;;17.70;55.30;;;;;;5068927;28;20231;-46
2023/04/25 12:57:54;;;;;;;1.87;0.67;;;17.70;55.10;;;;;;5064284;28;20206;-46
2023/04/25 13:00:24;;;;;;;2.60;0.80;;;17.70;55.10;;;;;;5072386;28;20201;-46
2023/04/25 13:02:52;;;;;;;2.80;0.63;;;17.70;54.50;;;;;;5067823;28;20584;-46
2023/04/25 13:05:22;;;;;;;1.23;0.70;;;17.70;53.70;;;;;;5066959;28;20283;-47
2023/04/25 13:07:53;;;;;;;2.60;1.00;;;17.70;54.10;;;;;;5066976;28;20655;-47
2023/04/25 13:10:24;;;;;;;2.07;0.73;;;17.70;54.40;;;;;;5068631;28;20206;-47
2023/04/25 13:12:56;;;;;;;1.63;0.70;;;17.70;54.60;;;;;;5067268;28;20243;-47
2023/04/25 13:15:27;;;;;;;0.87;0.63;;;17.70;54.60;;;;;;5055631;28;20217;-48